createdAt,value
2019-02-24T00:01:56.759Z,2.60
2019-02-24T00:04:24.412Z,2.50
2019-02-24T00:06:51.990Z,2.50
2019-02-24T00:09:19.759Z,2.50
2019-02-24T00:11:47.316Z,2.50
2019-02-24T00:14:14.830Z,2.40
2019-02-24T00:16:42.379Z,2.40
2019-02-24T00:19:09.940Z,2.40
2019-02-24T00:21:37.499Z,2.30
2019-02-24T00:24:05.045Z,2.30
2019-02-24T00:26:32.738Z,2.30
2019-02-24T00:29:00.303Z,2.20
2019-02-24T00:31:27.973Z,2.30
2019-02-24T00:33:55.634Z,2.30
2019-02-24T00:36:23.186Z,2.30
2019-02-24T00:38:50.661Z,2.30
2019-02-24T00:41:19.405Z,2.20
2019-02-24T00:43:46.933Z,2.20
2019-02-24T00:46:14.530Z,2.10
2019-02-24T00:48:41.995Z,2.10
2019-02-24T00:51:10.548Z,2.00
2019-02-24T00:53:38.065Z,2.00
2019-02-24T00:56:05.388Z,2.00
2019-02-24T00:58:32.884Z,2.00
2019-02-24T01:01:00.418Z,1.90
2019-02-24T01:03:27.924Z,1.90
2019-02-24T01:05:55.548Z,1.90
2019-02-24T01:08:23.079Z,1.80
2019-02-24T01:10:51.876Z,1.80
2019-02-24T01:13:19.696Z,1.80
2019-02-24T01:15:47.271Z,1.70
2019-02-24T01:18:14.839Z,1.70
2019-02-24T01:20:42.346Z,1.70
2019-02-24T01:23:10.875Z,1.60
2019-02-24T01:25:38.653Z,1.60
2019-02-24T01:28:06.115Z,1.60
2019-02-24T01:30:33.658Z,1.60
2019-02-24T01:33:01.108Z,1.50
2019-02-24T01:35:28.556Z,1.50
2019-02-24T01:37:57.226Z,1.50
2019-02-24T01:40:24.679Z,1.40
2019-02-24T01:42:52.204Z,1.40
2019-02-24T01:45:19.886Z,1.40
2019-02-24T01:47:47.338Z,1.40
2019-02-24T01:50:14.923Z,1.30
2019-02-24T01:52:42.366Z,1.30
2019-02-24T01:55:09.874Z,1.30
2019-02-24T01:57:37.446Z,1.20
2019-02-24T02:00:06.936Z,1.20
2019-02-24T02:02:34.968Z,1.20
2019-02-24T02:05:02.696Z,1.20
2019-02-24T02:07:30.345Z,1.20
2019-02-24T02:09:58.754Z,1.10
2019-02-24T02:12:26.989Z,1.10
2019-02-24T02:14:54.590Z,1.10
2019-02-24T02:17:22.420Z,1.10
2019-02-24T02:19:50.018Z,1.10
2019-02-24T02:22:17.643Z,1.10
2019-02-24T02:24:45.279Z,1.10
2019-02-24T02:27:12.823Z,1.10
2019-02-24T02:29:40.466Z,1.00
2019-02-24T02:32:09.334Z,1.00
2019-02-24T02:34:36.946Z,1.00
2019-02-24T02:37:04.483Z,1.00
2019-02-24T02:39:31.968Z,1.00
2019-02-24T02:41:59.595Z,1.00
2019-02-24T02:44:27.258Z,1.00
2019-02-24T02:46:54.771Z,1.00
2019-02-24T02:49:23.411Z,1.00
2019-02-24T02:51:50.939Z,1.00
2019-02-24T02:54:18.391Z,0.90
2019-02-24T02:56:45.823Z,1.00
2019-02-24T02:59:13.390Z,1.00
2019-02-24T03:01:40.937Z,0.90
2019-02-24T03:04:09.014Z,0.90
2019-02-24T03:06:41.640Z,0.90
2019-02-24T03:09:10.674Z,0.90
2019-02-24T03:11:38.196Z,0.90
2019-02-24T03:14:05.736Z,0.90
2019-02-24T03:16:33.442Z,0.90
2019-02-24T03:19:01.008Z,0.80
2019-02-24T03:21:28.573Z,0.80
2019-02-24T03:23:56.113Z,0.80
2019-02-24T03:26:24.732Z,0.80
2019-02-24T03:28:53.234Z,0.70
2019-02-24T03:31:20.840Z,0.70
2019-02-24T03:33:48.385Z,0.70
2019-02-24T03:36:15.864Z,0.70
2019-02-24T03:38:43.332Z,0.70
2019-02-24T03:41:10.770Z,0.70
2019-02-24T03:43:38.371Z,0.60
2019-02-24T03:46:05.947Z,0.60
2019-02-24T03:48:33.434Z,0.60
2019-02-24T03:51:01.056Z,0.60
2019-02-24T03:53:28.686Z,0.60
2019-02-24T03:55:57.652Z,0.60
2019-02-24T03:58:25.526Z,0.50
2019-02-24T04:00:53.068Z,0.50
2019-02-24T04:03:20.600Z,0.50
2019-02-24T04:05:48.058Z,0.50
2019-02-24T04:08:15.618Z,0.50
2019-02-24T04:10:42.996Z,0.50
2019-02-24T04:13:10.627Z,0.40
2019-02-24T04:15:38.145Z,0.40
2019-02-24T04:18:05.568Z,0.40
2019-02-24T04:20:33.146Z,0.40
2019-02-24T04:23:00.747Z,0.40
2019-02-24T04:25:28.251Z,0.40
2019-02-24T04:27:55.717Z,0.40
2019-02-24T04:30:23.167Z,0.40
2019-02-24T04:32:50.768Z,0.40
2019-02-24T04:35:18.372Z,0.30
2019-02-24T04:37:45.966Z,0.30
2019-02-24T04:40:13.460Z,0.30
2019-02-24T04:42:41.131Z,0.30
2019-02-24T04:45:08.715Z,0.30
2019-02-24T04:47:36.175Z,0.30
2019-02-24T04:50:03.686Z,0.30
2019-02-24T04:52:31.322Z,0.30
2019-02-24T04:54:58.850Z,0.20
2019-02-24T04:57:26.342Z,0.20
2019-02-24T04:59:54.002Z,0.20
2019-02-24T05:02:21.404Z,0.20
2019-02-24T05:04:48.975Z,0.20
2019-02-24T05:07:16.389Z,0.20
2019-02-24T05:09:44.894Z,0.10
2019-02-24T05:12:12.315Z,0.10
2019-02-24T05:14:39.914Z,0.10
2019-02-24T05:17:07.403Z,0.10
2019-02-24T05:19:34.963Z,0.10
2019-02-24T05:22:02.402Z,0.00
2019-02-24T05:24:29.839Z,0.00
2019-02-24T05:26:57.569Z,0.00
2019-02-24T05:29:25.214Z,0.00
2019-02-24T05:31:52.869Z,-0.10
2019-02-24T05:34:20.396Z,-0.10
2019-02-24T05:36:47.974Z,-0.10
2019-02-24T05:39:15.420Z,-0.10
2019-02-24T05:41:42.912Z,-0.10
2019-02-24T05:44:10.549Z,-0.10
2019-02-24T05:46:38.120Z,-0.10
2019-02-24T05:49:05.567Z,-0.10
2019-02-24T05:51:33.333Z,-0.10
2019-02-24T05:54:00.772Z,-0.10
2019-02-24T05:56:28.238Z,-0.10
2019-02-24T05:58:55.659Z,-0.10
2019-02-24T06:01:23.225Z,-0.10
2019-02-24T06:03:50.711Z,-0.10
2019-02-24T06:06:18.140Z,-0.10
2019-02-24T06:08:45.766Z,-0.10
2019-02-24T06:11:13.330Z,-0.10
2019-02-24T06:13:40.743Z,-0.10
2019-02-24T06:16:09.044Z,-0.10
2019-02-24T06:18:36.660Z,-0.10
2019-02-24T06:21:04.399Z,-0.10
2019-02-24T06:23:32.134Z,-0.10
2019-02-24T06:25:59.635Z,-0.10
2019-02-24T06:28:27.167Z,-0.10
2019-02-24T06:30:54.624Z,-0.10
2019-02-24T06:33:22.067Z,-0.10
2019-02-24T06:35:49.737Z,-0.10
2019-02-24T06:38:17.307Z,-0.10
2019-02-24T06:40:45.045Z,-0.10
2019-02-24T06:43:12.545Z,-0.10
2019-02-24T06:45:40.012Z,-0.10
2019-02-24T06:48:08.843Z,-0.10
2019-02-24T06:50:55.187Z,-0.10
2019-02-24T06:53:22.856Z,-0.10
2019-02-24T06:55:50.674Z,0.00
2019-02-24T06:58:18.601Z,-0.10
2019-02-24T07:00:46.182Z,0.00
2019-02-24T07:03:13.902Z,0.00
2019-02-24T07:05:41.356Z,0.00
2019-02-24T07:08:09.701Z,0.00
2019-02-24T07:10:37.214Z,0.00
2019-02-24T07:13:04.890Z,0.00
2019-02-24T07:15:32.361Z,0.10
2019-02-24T07:17:59.989Z,0.10
2019-02-24T07:20:27.587Z,0.10
2019-02-24T07:22:55.153Z,0.10
2019-02-24T07:25:22.735Z,0.20
2019-02-24T07:27:50.347Z,0.20
2019-02-24T07:30:23.528Z,0.30
2019-02-24T07:32:47.199Z,0.30
2019-02-24T07:35:14.607Z,0.40
2019-02-24T07:37:42.386Z,0.50
2019-02-24T07:40:10.247Z,0.60
2019-02-24T07:42:37.855Z,0.70
2019-02-24T07:45:05.487Z,0.80
2019-02-24T07:47:33.208Z,0.80
2019-02-24T07:50:00.689Z,0.90
2019-02-24T07:52:28.236Z,1.00
2019-02-24T07:54:55.679Z,1.00
2019-02-24T07:57:23.127Z,1.10
2019-02-24T07:59:50.667Z,1.20
2019-02-24T08:02:18.120Z,1.30
2019-02-24T08:04:47.001Z,1.40
2019-02-24T08:07:14.544Z,1.60
2019-02-24T08:09:42.060Z,1.70
2019-02-24T08:12:10.452Z,1.90
2019-02-24T08:14:37.852Z,2.10
2019-02-24T08:17:05.431Z,2.30
2019-02-24T08:19:32.885Z,2.40
2019-02-24T08:22:00.396Z,2.60
2019-02-24T08:24:29.251Z,2.90
2019-02-24T08:26:56.907Z,3.00
2019-02-24T08:29:24.362Z,3.20
2019-02-24T08:31:51.866Z,3.40
2019-02-24T08:34:19.470Z,3.50
2019-02-24T08:36:46.988Z,3.70
2019-02-24T08:39:14.615Z,3.80
2019-02-24T08:41:42.110Z,4.00
2019-02-24T08:44:10.896Z,4.20
2019-02-24T08:46:38.343Z,4.20
2019-02-24T08:49:05.899Z,4.30
2019-02-24T08:51:33.490Z,4.40
2019-02-24T08:54:01.613Z,4.50
2019-02-24T08:56:30.430Z,4.50
2019-02-24T08:58:58.046Z,4.60
2019-02-24T09:01:25.851Z,4.60
2019-02-24T09:03:53.495Z,4.70
2019-02-24T09:06:21.038Z,4.70
2019-02-24T09:08:48.554Z,4.70
2019-02-24T09:11:16.137Z,4.80
2019-02-24T09:13:43.605Z,4.80
2019-02-24T09:16:11.344Z,4.90
2019-02-24T09:18:38.882Z,4.90
2019-02-24T09:21:06.444Z,4.90
2019-02-24T09:23:34.140Z,5.00
2019-02-24T09:26:02.132Z,5.00
2019-02-24T09:28:30.033Z,5.10
2019-02-24T09:31:00.734Z,5.10
2019-02-24T09:33:26.941Z,5.20
2019-02-24T09:35:54.919Z,5.20
2019-02-24T09:38:22.415Z,5.30
2019-02-24T09:40:49.970Z,5.40
2019-02-24T09:43:17.580Z,5.40
2019-02-24T09:45:45.214Z,5.50
2019-02-24T09:48:12.822Z,5.60
2019-02-24T09:50:40.524Z,5.60
2019-02-24T09:53:08.573Z,5.70
2019-02-24T09:55:37.599Z,5.80
2019-02-24T09:58:05.116Z,5.90
2019-02-24T10:00:32.706Z,6.00
2019-02-24T10:03:00.232Z,6.00
2019-02-24T10:05:27.870Z,6.20
2019-02-24T10:07:55.523Z,6.30
2019-02-24T10:10:23.074Z,6.30
2019-02-24T10:12:50.902Z,6.40
2019-02-24T10:15:18.694Z,6.50
2019-02-24T10:17:46.421Z,6.60
2019-02-24T10:20:14.274Z,6.70
2019-02-24T10:22:41.839Z,6.70
2019-02-24T10:25:09.600Z,6.80
2019-02-24T10:27:37.640Z,6.90
2019-02-24T10:30:05.554Z,7.00
2019-02-24T10:32:34.802Z,7.10
2019-02-24T10:35:02.431Z,7.20
2019-02-24T10:37:29.998Z,7.30
2019-02-24T10:39:57.619Z,7.40
2019-02-24T10:42:25.239Z,7.40
2019-02-24T10:44:52.766Z,7.50
2019-02-24T10:47:20.731Z,7.60
2019-02-24T10:49:48.712Z,7.70
2019-02-24T10:52:16.284Z,7.80
2019-02-24T10:54:43.839Z,7.90
2019-02-24T10:57:12.946Z,8.00
2019-02-24T10:59:40.713Z,8.10
2019-02-24T11:02:11.366Z,8.20
2019-02-24T11:04:38.900Z,8.30
2019-02-24T11:07:06.419Z,8.40
2019-02-24T11:09:33.913Z,8.50
2019-02-24T11:12:01.467Z,8.60
2019-02-24T11:14:29.350Z,8.60
2019-02-24T11:16:56.859Z,8.70
2019-02-24T11:19:24.324Z,8.80
2019-02-24T11:21:51.816Z,8.80
2019-02-24T11:24:19.256Z,8.90
2019-02-24T11:26:46.871Z,9.00
2019-02-24T11:29:14.281Z,9.10
2019-02-24T11:31:41.945Z,9.10
2019-02-24T11:34:12.267Z,9.20
2019-02-24T11:36:39.768Z,9.30
2019-02-24T11:39:07.966Z,9.40
2019-02-24T11:41:35.816Z,9.40
2019-02-24T11:44:03.338Z,9.40
2019-02-24T11:46:30.906Z,9.50
2019-02-24T11:48:58.431Z,9.50
2019-02-24T11:51:26.051Z,9.60
2019-02-24T11:53:53.604Z,9.70
2019-02-24T11:56:21.112Z,9.70
2019-02-24T11:58:48.668Z,9.80
2019-02-24T12:01:16.094Z,9.90
2019-02-24T12:03:43.615Z,10.00
2019-02-24T12:06:11.574Z,10.00
2019-02-24T12:08:38.934Z,10.10
2019-02-24T12:11:06.416Z,10.10
2019-02-24T12:13:33.883Z,10.20
2019-02-24T12:16:01.451Z,10.30
2019-02-24T12:18:29.035Z,10.40
2019-02-24T12:20:56.622Z,10.50
2019-02-24T12:23:24.187Z,10.60
2019-02-24T12:25:51.737Z,10.70
2019-02-24T12:28:19.351Z,10.80
2019-02-24T12:30:46.857Z,10.90
2019-02-24T12:33:15.468Z,11.00
2019-02-24T12:35:44.894Z,11.00
2019-02-24T12:38:12.337Z,11.10
2019-02-24T12:40:39.664Z,11.10
2019-02-24T12:43:07.318Z,11.10
2019-02-24T12:45:34.811Z,11.10
2019-02-24T12:48:02.215Z,11.20
2019-02-24T12:50:29.796Z,11.20
2019-02-24T12:52:57.378Z,11.30
2019-02-24T12:55:24.846Z,11.40
2019-02-24T12:57:52.290Z,11.40
2019-02-24T13:00:19.954Z,11.50
2019-02-24T13:02:56.431Z,11.60
2019-02-24T13:05:25.713Z,11.70
2019-02-24T13:07:53.243Z,11.70
2019-02-24T13:10:20.899Z,11.80
2019-02-24T13:12:48.546Z,11.90
2019-02-24T13:15:15.975Z,12.00
2019-02-24T13:17:43.330Z,12.10
2019-02-24T13:20:12.426Z,12.10
2019-02-24T13:22:40.227Z,12.10
2019-02-24T13:25:09.730Z,12.20
2019-02-24T13:27:37.326Z,12.20
2019-02-24T13:30:05.502Z,12.30
2019-02-24T13:32:34.413Z,12.40
2019-02-24T13:35:01.904Z,12.40
2019-02-24T13:37:30.903Z,12.50
2019-02-24T13:39:58.532Z,12.60
2019-02-24T13:42:26.239Z,12.60
2019-02-24T13:44:53.646Z,12.70
2019-02-24T13:47:21.243Z,12.70
2019-02-24T13:49:48.712Z,12.80
2019-02-24T13:52:16.327Z,12.80
2019-02-24T13:54:43.840Z,12.90
2019-02-24T13:57:11.397Z,12.90
2019-02-24T13:59:38.982Z,12.90
2019-02-24T14:02:06.706Z,13.00
2019-02-24T14:04:34.300Z,13.00
2019-02-24T14:07:01.926Z,13.10
2019-02-24T14:09:29.566Z,13.10
2019-02-24T14:11:58.898Z,13.10
2019-02-24T14:14:26.469Z,13.10
2019-02-24T14:16:54.333Z,13.20
2019-02-24T14:19:23.174Z,13.20
2019-02-24T14:21:50.605Z,13.20
2019-02-24T14:24:19.968Z,13.30
2019-02-24T14:26:47.442Z,13.30
2019-02-24T14:29:15.043Z,13.40
2019-02-24T14:31:42.555Z,13.40
2019-02-24T14:34:11.005Z,13.40
2019-02-24T14:36:38.497Z,13.40
2019-02-24T14:39:06.123Z,13.40
2019-02-24T14:41:35.360Z,13.50
2019-02-24T14:44:02.795Z,13.50
2019-02-24T14:46:30.351Z,13.60
2019-02-24T14:48:57.830Z,13.60
2019-02-24T14:51:25.329Z,13.60
2019-02-24T14:53:52.841Z,13.50
2019-02-24T14:56:20.194Z,13.50
2019-02-24T14:58:47.773Z,13.50
2019-02-24T15:01:15.196Z,13.50
2019-02-24T15:03:42.646Z,13.50
2019-02-24T15:06:12.744Z,13.40
2019-02-24T15:08:40.180Z,13.40
2019-02-24T15:11:07.827Z,13.40
2019-02-24T15:13:35.424Z,13.40
2019-02-24T15:16:02.858Z,13.40
2019-02-24T15:18:30.147Z,13.40
2019-02-24T15:20:57.707Z,13.30
2019-02-24T15:23:25.255Z,13.30
2019-02-24T15:25:52.898Z,13.30
2019-02-24T15:28:21.489Z,13.20
2019-02-24T15:30:49.020Z,13.20
2019-02-24T15:33:16.679Z,13.20
2019-02-24T15:35:44.150Z,13.20
2019-02-24T15:38:12.580Z,13.20
2019-02-24T15:40:40.175Z,13.20
2019-02-24T15:43:07.747Z,13.10
2019-02-24T15:45:35.379Z,13.10
2019-02-24T15:48:02.991Z,13.00
2019-02-24T15:50:30.489Z,13.00
2019-02-24T15:52:57.910Z,13.00
2019-02-24T15:55:25.419Z,12.90
2019-02-24T15:57:53.021Z,12.90
2019-02-24T16:00:20.603Z,12.80
2019-02-24T16:02:48.335Z,12.80
2019-02-24T16:05:15.779Z,12.80
2019-02-24T16:07:43.279Z,12.70
2019-02-24T16:10:14.450Z,12.60
2019-02-24T16:12:41.878Z,12.50
2019-02-24T16:15:11.205Z,12.40
2019-02-24T16:17:38.978Z,12.40
2019-02-24T16:20:09.181Z,12.30
2019-02-24T16:22:36.676Z,12.20
2019-02-24T16:25:04.359Z,12.20
2019-02-24T16:27:31.876Z,12.00
2019-02-24T16:29:59.470Z,12.00
2019-02-24T16:32:27.004Z,11.80
2019-02-24T16:34:54.556Z,11.80
2019-02-24T16:37:22.042Z,11.60
2019-02-24T16:39:49.370Z,11.50
2019-02-24T16:42:16.793Z,11.40
2019-02-24T16:44:44.434Z,11.30
2019-02-24T16:47:11.871Z,11.20
2019-02-24T16:49:39.370Z,11.10
2019-02-24T16:52:06.944Z,10.90
2019-02-24T16:54:34.448Z,10.80
2019-02-24T16:57:05.135Z,10.70
2019-02-24T16:59:31.549Z,10.60
2019-02-24T17:02:00.187Z,10.50
2019-02-24T17:04:27.719Z,10.40
2019-02-24T17:06:55.306Z,10.30
2019-02-24T17:09:22.673Z,10.20
2019-02-24T17:11:50.155Z,10.20
2019-02-24T17:14:17.609Z,10.10
2019-02-24T17:16:45.136Z,10.10
2019-02-24T17:19:12.518Z,10.00
2019-02-24T17:21:41.025Z,9.90
2019-02-24T17:24:08.622Z,9.70
2019-02-24T17:26:36.120Z,9.60
2019-02-24T17:29:03.662Z,9.50
2019-02-24T17:31:31.242Z,9.50
2019-02-24T17:33:58.808Z,9.40
2019-02-24T17:36:27.310Z,9.30
2019-02-24T17:38:54.591Z,9.20
2019-02-24T17:41:21.948Z,9.10
2019-02-24T17:43:49.656Z,9.10
2019-02-24T17:46:17.150Z,9.00
2019-02-24T17:48:44.749Z,8.90
2019-02-24T17:51:20.630Z,8.80
2019-02-24T17:53:42.857Z,8.80
2019-02-24T17:56:12.494Z,8.70
2019-02-24T17:58:40.229Z,8.60
2019-02-24T18:01:07.756Z,8.60
2019-02-24T18:03:39.341Z,8.50
2019-02-24T18:06:04.626Z,8.50
2019-02-24T18:08:33.267Z,8.50
2019-02-24T18:11:00.677Z,8.50
2019-02-24T18:13:28.172Z,8.40
2019-02-24T18:15:55.774Z,8.30
2019-02-24T18:18:23.386Z,8.20
2019-02-24T18:20:50.875Z,8.10
2019-02-24T18:23:18.468Z,8.10
2019-02-24T18:25:45.974Z,8.00
2019-02-24T18:28:14.639Z,8.00
2019-02-24T18:30:42.204Z,7.90
2019-02-24T18:33:09.478Z,7.80
2019-02-24T18:35:36.902Z,7.80
2019-02-24T18:38:04.759Z,7.70
2019-02-24T18:40:32.387Z,7.60
2019-02-24T18:43:00.780Z,7.60
2019-02-24T18:45:28.471Z,7.50
2019-02-24T18:47:56.011Z,7.50
2019-02-24T18:50:23.479Z,7.40
2019-02-24T18:52:51.003Z,7.40
2019-02-24T18:55:18.633Z,7.30
2019-02-24T18:57:46.175Z,7.30
2019-02-24T19:00:15.774Z,7.20
2019-02-24T19:02:43.440Z,7.20
2019-02-24T19:05:11.219Z,7.10
2019-02-24T19:07:38.852Z,7.10
2019-02-24T19:10:08.419Z,7.10
2019-02-24T19:12:35.905Z,7.00
2019-02-24T19:15:04.130Z,6.90
2019-02-24T19:17:31.722Z,6.90
2019-02-24T19:19:59.132Z,6.80
2019-02-24T19:22:26.633Z,6.70
2019-02-24T19:24:54.324Z,6.70
2019-02-24T19:27:22.019Z,6.60
2019-02-24T19:29:49.546Z,6.60
2019-02-24T19:32:17.274Z,6.60
2019-02-24T19:34:44.850Z,6.50
2019-02-24T19:37:13.632Z,6.50
2019-02-24T19:39:41.483Z,6.40
2019-02-24T19:42:09.276Z,6.40
2019-02-24T19:44:36.846Z,6.30
2019-02-24T19:47:04.407Z,6.30
2019-02-24T19:49:32.070Z,6.20
2019-02-24T19:51:59.578Z,6.20
2019-02-24T19:54:27.428Z,6.10
2019-02-24T19:56:56.320Z,6.10
2019-02-24T19:59:24.119Z,6.00
2019-02-24T20:01:51.699Z,5.90
2019-02-24T20:04:19.208Z,5.90
2019-02-24T20:06:46.711Z,5.80
2019-02-24T20:09:14.441Z,5.80
2019-02-24T20:11:41.914Z,5.80
2019-02-24T20:14:09.963Z,5.70
2019-02-24T20:16:37.423Z,5.70
2019-02-24T20:19:05.078Z,5.60
2019-02-24T20:21:32.516Z,5.60
2019-02-24T20:23:59.888Z,5.60
2019-02-24T20:26:27.531Z,5.50
2019-02-24T20:28:55.251Z,5.50
2019-02-24T20:31:23.871Z,5.40
2019-02-24T20:33:51.542Z,5.40
2019-02-24T20:36:19.155Z,5.30
2019-02-24T20:38:46.799Z,5.30
2019-02-24T20:41:14.697Z,5.20
2019-02-24T20:43:42.172Z,5.20
2019-02-24T20:46:09.992Z,5.10
2019-02-24T20:48:37.661Z,5.10
2019-02-24T20:51:06.403Z,5.00
2019-02-24T20:53:34.278Z,5.00
2019-02-24T20:56:01.766Z,4.90
2019-02-24T20:58:29.454Z,4.90
2019-02-24T21:00:57.202Z,4.80
2019-02-24T21:03:29.543Z,4.80
2019-02-24T21:05:58.152Z,4.80
2019-02-24T21:08:25.627Z,4.70
2019-02-24T21:10:53.311Z,4.70
2019-02-24T21:13:20.767Z,4.70
2019-02-24T21:15:48.218Z,4.60
2019-02-24T21:18:15.911Z,4.60
2019-02-24T21:20:43.493Z,4.50
2019-02-24T21:23:10.950Z,4.50
2019-02-24T21:25:38.436Z,4.50
2019-02-24T21:28:07.143Z,4.50
2019-02-24T21:30:35.800Z,4.40
2019-02-24T21:33:03.506Z,4.40
2019-02-24T21:35:30.897Z,4.40
2019-02-24T21:37:58.307Z,4.40
2019-02-24T21:40:25.783Z,4.30
2019-02-24T21:42:53.132Z,4.30
2019-02-24T21:45:20.693Z,4.30
2019-02-24T21:47:48.109Z,4.20
2019-02-24T21:50:15.697Z,4.20
2019-02-24T21:52:43.231Z,4.20
2019-02-24T21:55:11.329Z,4.10
2019-02-24T21:57:38.900Z,4.10
2019-02-24T22:00:09.766Z,4.00
2019-02-24T22:02:37.524Z,4.00
2019-02-24T22:05:05.658Z,3.90
2019-02-24T22:07:34.228Z,3.90
2019-02-24T22:10:01.790Z,3.90
2019-02-24T22:12:29.718Z,3.90
2019-02-24T22:14:57.144Z,3.80
2019-02-24T22:17:24.710Z,3.80
2019-02-24T22:19:52.150Z,3.80
2019-02-24T22:22:19.688Z,3.70
2019-02-24T22:24:47.230Z,3.70
2019-02-24T22:27:14.681Z,3.70
2019-02-24T22:29:46.368Z,3.60
2019-02-24T22:32:33.534Z,3.60
2019-02-24T22:35:00.983Z,3.60
2019-02-24T22:37:28.636Z,3.50
2019-02-24T22:39:56.775Z,3.50
2019-02-24T22:42:24.358Z,3.50
2019-02-24T22:44:51.978Z,3.50
2019-02-24T22:47:19.462Z,3.40
2019-02-24T22:49:46.935Z,3.40
2019-02-24T22:52:15.420Z,3.40
2019-02-24T22:54:43.173Z,3.40
2019-02-24T22:57:10.708Z,3.30
2019-02-24T22:59:38.041Z,3.30
2019-02-24T23:02:05.951Z,3.30
2019-02-24T23:04:34.546Z,3.30
2019-02-24T23:07:02.256Z,3.20
2019-02-24T23:09:29.837Z,3.20
2019-02-24T23:11:57.465Z,3.20
2019-02-24T23:14:25.030Z,3.20
2019-02-24T23:16:52.578Z,3.10
2019-02-24T23:19:21.322Z,3.10
2019-02-24T23:21:48.802Z,3.10
2019-02-24T23:24:16.360Z,3.00
2019-02-24T23:26:43.732Z,3.00
2019-02-24T23:29:11.285Z,3.00
2019-02-24T23:31:38.898Z,2.90
2019-02-24T23:34:06.467Z,3.00
2019-02-24T23:36:33.990Z,2.90
2019-02-24T23:39:01.516Z,2.90
2019-02-24T23:41:30.865Z,2.80
2019-02-24T23:43:58.344Z,2.80
2019-02-24T23:46:25.918Z,2.80
2019-02-24T23:48:53.667Z,2.80
2019-02-24T23:51:21.183Z,2.70
2019-02-24T23:53:48.695Z,2.70
2019-02-24T23:56:19.720Z,2.70
2019-02-24T23:58:47.139Z,2.60
